sensor_id;sensor_type;location;lat;lon;timestamp;temperature;humidity
1700;DHT22;847;48.058;7.810;2022-08-21T00:00:42;17.80;99.00
1700;DHT22;847;48.058;7.810;2022-08-21T00:03:10;17.90;99.00
1700;DHT22;847;48.058;7.810;2022-08-21T00:05:41;18.00;99.00
1700;DHT22;847;48.058;7.810;2022-08-21T00:08:09;18.10;99.00
1700;DHT22;847;48.058;7.810;2022-08-21T00:10:37;18.10;98.90
1700;DHT22;847;48.058;7.810;2022-08-21T00:13:05;18.10;99.00
1700;DHT22;847;48.058;7.810;2022-08-21T00:15:34;18.10;98.90
1700;DHT22;847;48.058;7.810;2022-08-21T00:18:03;17.90;99.00
1700;DHT22;847;48.058;7.810;2022-08-21T00:20:30;17.90;99.00
1700;DHT22;847;48.058;7.810;2022-08-21T00:28:10;18.00;99.00
1700;DHT22;847;48.058;7.810;2022-08-21T00:30:38;18.10;99.00
1700;DHT22;847;48.058;7.810;2022-08-21T00:33:05;18.10;99.00
1700;DHT22;847;48.058;7.810;2022-08-21T00:35:35;18.10;99.00
1700;DHT22;847;48.058;7.810;2022-08-21T00:38:03;18.00;99.00
1700;DHT22;847;48.058;7.810;2022-08-21T00:40:32;18.00;99.00
1700;DHT22;847;48.058;7.810;2022-08-21T00:43:01;18.00;99.00
1700;DHT22;847;48.058;7.810;2022-08-21T00:45:30;18.00;99.00
1700;DHT22;847;48.058;7.810;2022-08-21T00:47:57;18.00;99.00
1700;DHT22;847;48.058;7.810;2022-08-21T00:50:27;18.00;99.00
1700;DHT22;847;48.058;7.810;2022-08-21T00:52:55;18.00;99.00
1700;DHT22;847;48.058;7.810;2022-08-21T00:55:23;17.90;99.00
1700;DHT22;847;48.058;7.810;2022-08-21T00:57:54;17.80;99.00
1700;DHT22;847;48.058;7.810;2022-08-21T01:00:24;17.80;99.00
1700;DHT22;847;48.058;7.810;2022-08-21T01:02:53;17.80;99.00
1700;DHT22;847;48.058;7.810;2022-08-21T01:05:20;17.80;99.00
1700;DHT22;847;48.058;7.810;2022-08-21T01:07:47;17.90;99.00
1700;DHT22;847;48.058;7.810;2022-08-21T01:10:14;17.90;99.00
1700;DHT22;847;48.058;7.810;2022-08-21T01:12:41;17.80;99.00
1700;DHT22;847;48.058;7.810;2022-08-21T01:15:08;17.70;99.00
1700;DHT22;847;48.058;7.810;2022-08-21T01:17:36;17.80;99.00
1700;DHT22;847;48.058;7.810;2022-08-21T01:20:08;17.80;99.00
1700;DHT22;847;48.058;7.810;2022-08-21T01:22:37;17.70;99.00
1700;DHT22;847;48.058;7.810;2022-08-21T01:25:05;17.70;99.00
1700;DHT22;847;48.058;7.810;2022-08-21T01:27:32;17.70;99.00
1700;DHT22;847;48.058;7.810;2022-08-21T01:30:09;17.60;99.00
1700;DHT22;847;48.058;7.810;2022-08-21T01:32:36;17.50;99.00
1700;DHT22;847;48.058;7.810;2022-08-21T01:35:04;17.40;99.00
1700;DHT22;847;48.058;7.810;2022-08-21T01:37:31;17.40;99.00
1700;DHT22;847;48.058;7.810;2022-08-21T01:39:59;17.50;99.00
1700;DHT22;847;48.058;7.810;2022-08-21T01:42:26;17.50;99.00
1700;DHT22;847;48.058;7.810;2022-08-21T01:44:53;17.40;99.00
1700;DHT22;847;48.058;7.810;2022-08-21T01:47:19;17.40;99.00
1700;DHT22;847;48.058;7.810;2022-08-21T01:49:46;17.40;99.00
1700;DHT22;847;48.058;7.810;2022-08-21T01:52:13;17.30;99.00
1700;DHT22;847;48.058;7.810;2022-08-21T01:54:40;17.20;99.00
1700;DHT22;847;48.058;7.810;2022-08-21T01:57:09;17.20;99.00
1700;DHT22;847;48.058;7.810;2022-08-21T01:59:36;17.20;99.00
1700;DHT22;847;48.058;7.810;2022-08-21T02:02:03;17.30;99.00
1700;DHT22;847;48.058;7.810;2022-08-21T02:04:30;17.30;99.00
1700;DHT22;847;48.058;7.810;2022-08-21T02:06:57;17.30;99.00
1700;DHT22;847;48.058;7.810;2022-08-21T02:09:23;17.20;99.00
1700;DHT22;847;48.058;7.810;2022-08-21T02:11:50;17.20;99.00
1700;DHT22;847;48.058;7.810;2022-08-21T02:14:19;17.10;99.00
1700;DHT22;847;48.058;7.810;2022-08-21T02:16:46;17.10;99.00
1700;DHT22;847;48.058;7.810;2022-08-21T02:19:14;17.10;99.00
1700;DHT22;847;48.058;7.810;2022-08-21T02:21:42;17.10;99.00
1700;DHT22;847;48.058;7.810;2022-08-21T02:24:10;17.00;99.00
1700;DHT22;847;48.058;7.810;2022-08-21T02:26:37;17.00;99.00
1700;DHT22;847;48.058;7.810;2022-08-21T02:29:04;17.00;99.00
1700;DHT22;847;48.058;7.810;2022-08-21T02:31:32;17.00;99.00
1700;DHT22;847;48.058;7.810;2022-08-21T02:33:59;17.10;99.00
1700;DHT22;847;48.058;7.810;2022-08-21T02:36:26;17.00;99.00
1700;DHT22;847;48.058;7.810;2022-08-21T02:38:53;17.00;99.00
1700;DHT22;847;48.058;7.810;2022-08-21T02:41:22;16.90;99.00
1700;DHT22;847;48.058;7.810;2022-08-21T02:43:50;17.00;99.00
1700;DHT22;847;48.058;7.810;2022-08-21T02:46:19;17.00;98.90
1700;DHT22;847;48.058;7.810;2022-08-21T02:48:47;16.90;98.90
1700;DHT22;847;48.058;7.810;2022-08-21T02:51:17;16.80;99.00
1700;DHT22;847;48.058;7.810;2022-08-21T02:53:46;16.80;99.00
1700;DHT22;847;48.058;7.810;2022-08-21T02:56:16;16.80;99.00
1700;DHT22;847;48.058;7.810;2022-08-21T02:58:46;16.80;98.80
1700;DHT22;847;48.058;7.810;2022-08-21T03:01:13;16.70;99.00
1700;DHT22;847;48.058;7.810;2022-08-21T03:03:43;16.70;99.00
1700;DHT22;847;48.058;7.810;2022-08-21T03:06:14;16.70;99.00
1700;DHT22;847;48.058;7.810;2022-08-21T03:08:41;16.70;99.00
1700;DHT22;847;48.058;7.810;2022-08-21T03:11:10;16.60;99.00
1700;DHT22;847;48.058;7.810;2022-08-21T03:13:37;16.50;99.00
1700;DHT22;847;48.058;7.810;2022-08-21T03:16:05;16.40;99.00
1700;DHT22;847;48.058;7.810;2022-08-21T03:18:32;16.40;99.00
1700;DHT22;847;48.058;7.810;2022-08-21T03:20:59;16.40;99.00
1700;DHT22;847;48.058;7.810;2022-08-21T03:23:27;16.30;99.00
1700;DHT22;847;48.058;7.810;2022-08-21T03:25:56;16.40;99.00
1700;DHT22;847;48.058;7.810;2022-08-21T03:28:24;16.40;99.00
1700;DHT22;847;48.058;7.810;2022-08-21T03:30:52;16.30;99.00
1700;DHT22;847;48.058;7.810;2022-08-21T03:33:19;16.30;99.00
1700;DHT22;847;48.058;7.810;2022-08-21T03:35:49;16.20;99.00
1700;DHT22;847;48.058;7.810;2022-08-21T03:38:18;16.20;99.00
1700;DHT22;847;48.058;7.810;2022-08-21T03:40:46;16.20;99.00
1700;DHT22;847;48.058;7.810;2022-08-21T03:43:13;16.20;99.00
1700;DHT22;847;48.058;7.810;2022-08-21T03:45:39;16.30;99.00
1700;DHT22;847;48.058;7.810;2022-08-21T03:48:07;16.30;99.00
1700;DHT22;847;48.058;7.810;2022-08-21T03:50:37;16.30;99.00
1700;DHT22;847;48.058;7.810;2022-08-21T03:53:04;16.20;99.00
1700;DHT22;847;48.058;7.810;2022-08-21T03:55:31;16.20;99.00
1700;DHT22;847;48.058;7.810;2022-08-21T03:57:59;16.20;99.00
1700;DHT22;847;48.058;7.810;2022-08-21T04:00:26;16.20;99.00
1700;DHT22;847;48.058;7.810;2022-08-21T04:02:53;16.10;99.00
1700;DHT22;847;48.058;7.810;2022-08-21T04:05:20;15.90;99.00
1700;DHT22;847;48.058;7.810;2022-08-21T04:07:54;15.80;99.00
1700;DHT22;847;48.058;7.810;2022-08-21T04:10:22;15.80;99.00
1700;DHT22;847;48.058;7.810;2022-08-21T04:12:51;15.80;99.00
1700;DHT22;847;48.058;7.810;2022-08-21T04:15:19;15.70;99.00
1700;DHT22;847;48.058;7.810;2022-08-21T04:17:46;15.70;99.00
1700;DHT22;847;48.058;7.810;2022-08-21T04:20:13;15.70;99.00
1700;DHT22;847;48.058;7.810;2022-08-21T04:22:40;15.80;99.00
1700;DHT22;847;48.058;7.810;2022-08-21T04:25:08;15.90;99.00
1700;DHT22;847;48.058;7.810;2022-08-21T04:27:34;15.70;99.00
1700;DHT22;847;48.058;7.810;2022-08-21T04:30:02;15.70;99.00
1700;DHT22;847;48.058;7.810;2022-08-21T04:32:30;15.80;99.00
1700;DHT22;847;48.058;7.810;2022-08-21T04:34:58;15.90;99.00
1700;DHT22;847;48.058;7.810;2022-08-21T04:37:26;15.70;99.00
1700;DHT22;847;48.058;7.810;2022-08-21T04:39:53;15.70;99.00
1700;DHT22;847;48.058;7.810;2022-08-21T04:42:21;15.70;99.00
1700;DHT22;847;48.058;7.810;2022-08-21T04:44:49;15.70;99.00
1700;DHT22;847;48.058;7.810;2022-08-21T04:47:16;15.70;99.00
1700;DHT22;847;48.058;7.810;2022-08-21T04:49:44;15.70;99.00
1700;DHT22;847;48.058;7.810;2022-08-21T04:52:12;15.80;99.00
1700;DHT22;847;48.058;7.810;2022-08-21T04:54:41;15.90;99.00
1700;DHT22;847;48.058;7.810;2022-08-21T04:57:09;15.80;99.00
1700;DHT22;847;48.058;7.810;2022-08-21T04:59:39;15.80;99.00
1700;DHT22;847;48.058;7.810;2022-08-21T05:02:07;15.90;99.00
1700;DHT22;847;48.058;7.810;2022-08-21T05:04:36;15.90;99.00
1700;DHT22;847;48.058;7.810;2022-08-21T05:07:09;15.90;99.00
1700;DHT22;847;48.058;7.810;2022-08-21T05:09:37;15.80;99.00
1700;DHT22;847;48.058;7.810;2022-08-21T05:12:05;15.90;99.00
1700;DHT22;847;48.058;7.810;2022-08-21T05:14:31;15.90;99.00
1700;DHT22;847;48.058;7.810;2022-08-21T05:16:58;16.00;99.00
1700;DHT22;847;48.058;7.810;2022-08-21T05:19:25;16.10;99.00
1700;DHT22;847;48.058;7.810;2022-08-21T05:21:53;16.20;99.00
1700;DHT22;847;48.058;7.810;2022-08-21T05:24:21;16.10;99.00
1700;DHT22;847;48.058;7.810;2022-08-21T05:26:48;16.00;99.00
1700;DHT22;847;48.058;7.810;2022-08-21T05:29:15;16.10;99.00
1700;DHT22;847;48.058;7.810;2022-08-21T05:31:42;16.20;99.00
1700;DHT22;847;48.058;7.810;2022-08-21T05:34:09;16.20;99.00
1700;DHT22;847;48.058;7.810;2022-08-21T05:36:36;16.20;99.00
1700;DHT22;847;48.058;7.810;2022-08-21T05:39:03;16.20;99.00
1700;DHT22;847;48.058;7.810;2022-08-21T05:41:31;16.20;99.00
1700;DHT22;847;48.058;7.810;2022-08-21T05:43:58;16.30;99.00
1700;DHT22;847;48.058;7.810;2022-08-21T05:46:25;16.30;99.00
1700;DHT22;847;48.058;7.810;2022-08-21T05:48:51;16.30;99.00
1700;DHT22;847;48.058;7.810;2022-08-21T05:51:18;16.40;99.00
1700;DHT22;847;48.058;7.810;2022-08-21T05:53:45;16.40;99.00
1700;DHT22;847;48.058;7.810;2022-08-21T05:56:13;16.50;99.00
1700;DHT22;847;48.058;7.810;2022-08-21T05:58:41;16.50;99.00
1700;DHT22;847;48.058;7.810;2022-08-21T06:01:09;16.50;99.00
1700;DHT22;847;48.058;7.810;2022-08-21T06:03:38;16.50;99.00
1700;DHT22;847;48.058;7.810;2022-08-21T06:06:06;16.60;99.00
1700;DHT22;847;48.058;7.810;2022-08-21T06:08:34;16.60;99.00
1700;DHT22;847;48.058;7.810;2022-08-21T06:11:01;16.60;99.00
1700;DHT22;847;48.058;7.810;2022-08-21T06:13:29;16.70;99.00
1700;DHT22;847;48.058;7.810;2022-08-21T06:16:05;16.70;99.00
1700;DHT22;847;48.058;7.810;2022-08-21T06:18:32;16.80;99.00
1700;DHT22;847;48.058;7.810;2022-08-21T06:20:59;16.80;99.00
1700;DHT22;847;48.058;7.810;2022-08-21T06:23:26;16.80;99.00
1700;DHT22;847;48.058;7.810;2022-08-21T06:25:53;16.80;99.00
1700;DHT22;847;48.058;7.810;2022-08-21T06:28:19;16.90;99.00
1700;DHT22;847;48.058;7.810;2022-08-21T06:30:46;16.90;99.00
1700;DHT22;847;48.058;7.810;2022-08-21T06:33:14;17.00;99.00
1700;DHT22;847;48.058;7.810;2022-08-21T06:35:41;17.00;99.00
1700;DHT22;847;48.058;7.810;2022-08-21T06:38:09;17.00;99.00
1700;DHT22;847;48.058;7.810;2022-08-21T06:40:35;17.00;99.00
1700;DHT22;847;48.058;7.810;2022-08-21T06:43:07;17.00;99.00
1700;DHT22;847;48.058;7.810;2022-08-21T06:45:34;17.00;99.00
1700;DHT22;847;48.058;7.810;2022-08-21T06:48:00;17.10;99.00
1700;DHT22;847;48.058;7.810;2022-08-21T06:50:29;17.20;99.00
1700;DHT22;847;48.058;7.810;2022-08-21T06:53:00;17.20;99.00
1700;DHT22;847;48.058;7.810;2022-08-21T06:55:27;17.20;99.00
1700;DHT22;847;48.058;7.810;2022-08-21T06:57:54;17.30;99.00
1700;DHT22;847;48.058;7.810;2022-08-21T07:00:21;17.30;99.00
1700;DHT22;847;48.058;7.810;2022-08-21T07:02:47;17.30;99.00
1700;DHT22;847;48.058;7.810;2022-08-21T07:05:14;17.40;99.00
1700;DHT22;847;48.058;7.810;2022-08-21T07:07:42;17.50;99.00
1700;DHT22;847;48.058;7.810;2022-08-21T07:10:10;17.60;99.00
1700;DHT22;847;48.058;7.810;2022-08-21T07:12:36;17.60;99.00
1700;DHT22;847;48.058;7.810;2022-08-21T07:15:04;17.70;99.00
1700;DHT22;847;48.058;7.810;2022-08-21T07:17:31;17.80;99.00
1700;DHT22;847;48.058;7.810;2022-08-21T07:19:58;17.80;99.00
1700;DHT22;847;48.058;7.810;2022-08-21T07:22:25;17.80;99.00
1700;DHT22;847;48.058;7.810;2022-08-21T07:24:54;17.90;98.40
1700;DHT22;847;48.058;7.810;2022-08-21T07:27:21;17.90;99.00
1700;DHT22;847;48.058;7.810;2022-08-21T07:29:48;17.90;99.00
1700;DHT22;847;48.058;7.810;2022-08-21T07:32:14;17.90;99.00
1700;DHT22;847;48.058;7.810;2022-08-21T07:34:41;18.00;99.00
1700;DHT22;847;48.058;7.810;2022-08-21T07:37:08;18.10;98.70
1700;DHT22;847;48.058;7.810;2022-08-21T07:39:35;18.10;98.30
1700;DHT22;847;48.058;7.810;2022-08-21T07:42:03;18.30;98.60
1700;DHT22;847;48.058;7.810;2022-08-21T07:44:30;18.30;98.10
1700;DHT22;847;48.058;7.810;2022-08-21T07:46:57;18.40;97.10
1700;DHT22;847;48.058;7.810;2022-08-21T07:49:24;18.40;96.00
1700;DHT22;847;48.058;7.810;2022-08-21T07:51:50;18.50;96.20
1700;DHT22;847;48.058;7.810;2022-08-21T07:54:17;18.50;95.40
1700;DHT22;847;48.058;7.810;2022-08-21T07:56:44;18.60;94.40
1700;DHT22;847;48.058;7.810;2022-08-21T07:59:12;18.60;94.20
1700;DHT22;847;48.058;7.810;2022-08-21T08:01:39;18.70;93.90
1700;DHT22;847;48.058;7.810;2022-08-21T08:04:06;18.70;92.80
1700;DHT22;847;48.058;7.810;2022-08-21T08:06:33;18.80;93.40
1700;DHT22;847;48.058;7.810;2022-08-21T08:08:59;18.80;92.10
1700;DHT22;847;48.058;7.810;2022-08-21T08:11:29;18.90;92.10
1700;DHT22;847;48.058;7.810;2022-08-21T08:13:55;18.90;92.60
1700;DHT22;847;48.058;7.810;2022-08-21T08:16:25;18.90;92.30
1700;DHT22;847;48.058;7.810;2022-08-21T08:18:51;19.00;92.60
1700;DHT22;847;48.058;7.810;2022-08-21T08:21:20;19.10;90.50
1700;DHT22;847;48.058;7.810;2022-08-21T08:23:47;19.10;89.70
1700;DHT22;847;48.058;7.810;2022-08-21T08:26:13;19.20;90.00
1700;DHT22;847;48.058;7.810;2022-08-21T08:28:41;19.20;90.00
1700;DHT22;847;48.058;7.810;2022-08-21T08:31:08;19.20;90.40
1700;DHT22;847;48.058;7.810;2022-08-21T08:33:37;19.30;89.90
1700;DHT22;847;48.058;7.810;2022-08-21T08:36:12;19.40;90.00
1700;DHT22;847;48.058;7.810;2022-08-21T08:38:39;19.40;89.60
1700;DHT22;847;48.058;7.810;2022-08-21T08:41:11;19.50;88.90
1700;DHT22;847;48.058;7.810;2022-08-21T08:43:39;19.60;89.40
1700;DHT22;847;48.058;7.810;2022-08-21T08:46:12;19.70;88.50
1700;DHT22;847;48.058;7.810;2022-08-21T08:48:46;19.80;88.60
1700;DHT22;847;48.058;7.810;2022-08-21T08:51:18;19.90;88.20
1700;DHT22;847;48.058;7.810;2022-08-21T08:53:50;19.90;87.50
1700;DHT22;847;48.058;7.810;2022-08-21T08:56:22;20.00;87.00
1700;DHT22;847;48.058;7.810;2022-08-21T08:58:53;20.00;86.50
1700;DHT22;847;48.058;7.810;2022-08-21T09:01:22;20.10;86.40
1700;DHT22;847;48.058;7.810;2022-08-21T09:03:50;20.10;87.50
1700;DHT22;847;48.058;7.810;2022-08-21T09:06:31;20.10;85.40
1700;DHT22;847;48.058;7.810;2022-08-21T09:09:08;20.20;85.90
1700;DHT22;847;48.058;7.810;2022-08-21T09:11:41;20.40;86.30
1700;DHT22;847;48.058;7.810;2022-08-21T09:14:18;20.60;86.30
1700;DHT22;847;48.058;7.810;2022-08-21T09:16:50;20.60;84.50
1700;DHT22;847;48.058;7.810;2022-08-21T09:19:36;20.60;83.90
1700;DHT22;847;48.058;7.810;2022-08-21T09:22:07;20.60;84.50
1700;DHT22;847;48.058;7.810;2022-08-21T09:24:42;20.80;85.40
1700;DHT22;847;48.058;7.810;2022-08-21T09:27:13;20.90;84.20
1700;DHT22;847;48.058;7.810;2022-08-21T09:29:42;21.00;84.70
1700;DHT22;847;48.058;7.810;2022-08-21T09:32:11;21.00;83.20
1700;DHT22;847;48.058;7.810;2022-08-21T09:34:42;21.10;83.90
1700;DHT22;847;48.058;7.810;2022-08-21T09:37:16;21.20;83.70
1700;DHT22;847;48.058;7.810;2022-08-21T09:39:44;21.40;84.00
1700;DHT22;847;48.058;7.810;2022-08-21T09:42:10;21.30;83.40
1700;DHT22;847;48.058;7.810;2022-08-21T09:44:40;21.20;84.70
1700;DHT22;847;48.058;7.810;2022-08-21T09:47:10;21.20;84.10
1700;DHT22;847;48.058;7.810;2022-08-21T09:49:39;21.20;83.90
1700;DHT22;847;48.058;7.810;2022-08-21T09:52:17;21.30;83.60
1700;DHT22;847;48.058;7.810;2022-08-21T09:54:50;21.30;83.70
1700;DHT22;847;48.058;7.810;2022-08-21T09:57:22;21.50;82.90
1700;DHT22;847;48.058;7.810;2022-08-21T10:00:09;21.60;81.60
1700;DHT22;847;48.058;7.810;2022-08-21T10:02:37;21.60;82.30
1700;DHT22;847;48.058;7.810;2022-08-21T10:05:14;21.60;81.60
1700;DHT22;847;48.058;7.810;2022-08-21T10:07:43;21.70;81.80
1700;DHT22;847;48.058;7.810;2022-08-21T10:10:16;21.80;80.70
1700;DHT22;847;48.058;7.810;2022-08-21T10:12:49;21.90;80.90
1700;DHT22;847;48.058;7.810;2022-08-21T10:15:24;22.00;80.30
1700;DHT22;847;48.058;7.810;2022-08-21T10:18:09;22.10;79.20
1700;DHT22;847;48.058;7.810;2022-08-21T10:20:45;22.30;78.90
1700;DHT22;847;48.058;7.810;2022-08-21T10:23:29;22.40;79.10
1700;DHT22;847;48.058;7.810;2022-08-21T10:26:08;22.50;79.20
1700;DHT22;847;48.058;7.810;2022-08-21T10:28:45;22.60;77.30
1700;DHT22;847;48.058;7.810;2022-08-21T10:31:22;22.50;78.10
1700;DHT22;847;48.058;7.810;2022-08-21T10:34:14;22.60;76.80
1700;DHT22;847;48.058;7.810;2022-08-21T10:36:46;22.60;77.30
1700;DHT22;847;48.058;7.810;2022-08-21T10:39:18;22.70;76.50
1700;DHT22;847;48.058;7.810;2022-08-21T10:42:05;22.80;76.10
1700;DHT22;847;48.058;7.810;2022-08-21T10:44:40;22.90;76.80
1700;DHT22;847;48.058;7.810;2022-08-21T10:47:15;22.90;77.90
1700;DHT22;847;48.058;7.810;2022-08-21T10:49:52;23.10;76.60
1700;DHT22;847;48.058;7.810;2022-08-21T10:52:44;23.20;73.90
1700;DHT22;847;48.058;7.810;2022-08-21T10:55:16;23.30;75.80
1700;DHT22;847;48.058;7.810;2022-08-21T10:57:47;23.40;73.50
1700;DHT22;847;48.058;7.810;2022-08-21T11:00:18;23.40;74.20
1700;DHT22;847;48.058;7.810;2022-08-21T11:02:50;23.50;73.20
1700;DHT22;847;48.058;7.810;2022-08-21T11:05:24;23.60;72.70
1700;DHT22;847;48.058;7.810;2022-08-21T11:07:54;23.70;71.30
1700;DHT22;847;48.058;7.810;2022-08-21T11:10:24;23.70;72.00
1700;DHT22;847;48.058;7.810;2022-08-21T11:12:54;23.70;72.60
1700;DHT22;847;48.058;7.810;2022-08-21T11:15:29;23.80;71.70
1700;DHT22;847;48.058;7.810;2022-08-21T11:18:03;23.80;71.20
1700;DHT22;847;48.058;7.810;2022-08-21T11:20:36;23.90;71.10
1700;DHT22;847;48.058;7.810;2022-08-21T11:23:11;24.00;68.70
1700;DHT22;847;48.058;7.810;2022-08-21T11:25:45;23.90;70.20
1700;DHT22;847;48.058;7.810;2022-08-21T11:28:17;23.80;71.40
1700;DHT22;847;48.058;7.810;2022-08-21T11:31:00;23.90;70.90
1700;DHT22;847;48.058;7.810;2022-08-21T11:33:46;24.10;71.50
1700;DHT22;847;48.058;7.810;2022-08-21T11:36:20;24.20;69.80
1700;DHT22;847;48.058;7.810;2022-08-21T11:38:55;24.20;69.00
1700;DHT22;847;48.058;7.810;2022-08-21T11:41:28;24.20;68.60
1700;DHT22;847;48.058;7.810;2022-08-21T11:44:02;24.20;70.60
1700;DHT22;847;48.058;7.810;2022-08-21T11:46:36;24.30;69.20
1700;DHT22;847;48.058;7.810;2022-08-21T11:49:19;24.40;69.70
1700;DHT22;847;48.058;7.810;2022-08-21T11:51:50;24.40;69.10
1700;DHT22;847;48.058;7.810;2022-08-21T11:54:24;24.40;70.00
1700;DHT22;847;48.058;7.810;2022-08-21T11:59:33;24.50;68.30
1700;DHT22;847;48.058;7.810;2022-08-21T12:02:01;24.50;68.80
1700;DHT22;847;48.058;7.810;2022-08-21T12:04:31;24.50;67.30
1700;DHT22;847;48.058;7.810;2022-08-21T12:07:10;24.40;68.30
1700;DHT22;847;48.058;7.810;2022-08-21T12:09:37;24.20;68.00
1700;DHT22;847;48.058;7.810;2022-08-21T12:12:10;24.40;69.50
1700;DHT22;847;48.058;7.810;2022-08-21T12:14:41;24.60;67.90
1700;DHT22;847;48.058;7.810;2022-08-21T12:17:16;24.60;68.50
1700;DHT22;847;48.058;7.810;2022-08-21T12:19:44;24.70;67.00
1700;DHT22;847;48.058;7.810;2022-08-21T12:22:12;24.60;67.60
1700;DHT22;847;48.058;7.810;2022-08-21T12:24:44;24.60;67.50
1700;DHT22;847;48.058;7.810;2022-08-21T12:27:26;24.60;67.90
1700;DHT22;847;48.058;7.810;2022-08-21T12:29:56;24.90;67.20
1700;DHT22;847;48.058;7.810;2022-08-21T12:32:27;25.00;68.30
1700;DHT22;847;48.058;7.810;2022-08-21T12:35:01;24.90;66.00
1700;DHT22;847;48.058;7.810;2022-08-21T12:37:37;24.80;67.80
1700;DHT22;847;48.058;7.810;2022-08-21T12:40:11;25.00;68.60
1700;DHT22;847;48.058;7.810;2022-08-21T12:42:44;25.00;67.10
1700;DHT22;847;48.058;7.810;2022-08-21T12:45:19;25.00;68.10
1700;DHT22;847;48.058;7.810;2022-08-21T12:47:49;25.10;68.30
1700;DHT22;847;48.058;7.810;2022-08-21T12:50:21;25.00;67.10
1700;DHT22;847;48.058;7.810;2022-08-21T12:52:55;25.20;67.70
1700;DHT22;847;48.058;7.810;2022-08-21T12:55:28;25.30;65.80
1700;DHT22;847;48.058;7.810;2022-08-21T12:57:56;25.20;65.90
1700;DHT22;847;48.058;7.810;2022-08-21T13:00:26;25.10;66.20
1700;DHT22;847;48.058;7.810;2022-08-21T13:02:53;25.20;65.90
1700;DHT22;847;48.058;7.810;2022-08-21T13:05:28;25.40;67.30
1700;DHT22;847;48.058;7.810;2022-08-21T13:07:55;25.50;67.00
1700;DHT22;847;48.058;7.810;2022-08-21T13:10:25;25.50;66.60
1700;DHT22;847;48.058;7.810;2022-08-21T13:12:55;25.40;66.30
1700;DHT22;847;48.058;7.810;2022-08-21T13:15:26;25.40;66.00
1700;DHT22;847;48.058;7.810;2022-08-21T13:17:53;25.50;66.40
1700;DHT22;847;48.058;7.810;2022-08-21T13:20:22;25.50;65.70
1700;DHT22;847;48.058;7.810;2022-08-21T13:22:50;25.60;66.00
1700;DHT22;847;48.058;7.810;2022-08-21T13:25:19;25.60;65.50
1700;DHT22;847;48.058;7.810;2022-08-21T13:27:59;25.80;65.50
1700;DHT22;847;48.058;7.810;2022-08-21T13:30:26;25.70;64.30
1700;DHT22;847;48.058;7.810;2022-08-21T13:32:57;25.70;65.20
1700;DHT22;847;48.058;7.810;2022-08-21T13:35:28;25.70;66.50
1700;DHT22;847;48.058;7.810;2022-08-21T13:37:58;25.60;65.90
1700;DHT22;847;48.058;7.810;2022-08-21T13:40:32;25.90;65.40
1700;DHT22;847;48.058;7.810;2022-08-21T13:43:12;25.80;64.90
1700;DHT22;847;48.058;7.810;2022-08-21T13:45:44;25.90;65.70
1700;DHT22;847;48.058;7.810;2022-08-21T13:48:11;25.90;65.70
1700;DHT22;847;48.058;7.810;2022-08-21T13:50:38;25.70;64.90
1700;DHT22;847;48.058;7.810;2022-08-21T13:53:07;25.80;65.00
1700;DHT22;847;48.058;7.810;2022-08-21T13:55:47;25.90;64.30
1700;DHT22;847;48.058;7.810;2022-08-21T13:58:24;25.90;65.10
1700;DHT22;847;48.058;7.810;2022-08-21T14:00:52;25.90;65.00
1700;DHT22;847;48.058;7.810;2022-08-21T14:03:27;25.90;64.60
1700;DHT22;847;48.058;7.810;2022-08-21T14:05:54;26.00;64.70
1700;DHT22;847;48.058;7.810;2022-08-21T14:08:29;26.10;63.70
1700;DHT22;847;48.058;7.810;2022-08-21T14:10:58;26.10;64.10
1700;DHT22;847;48.058;7.810;2022-08-21T14:13:35;26.00;63.60
1700;DHT22;847;48.058;7.810;2022-08-21T14:16:15;26.00;64.70
1700;DHT22;847;48.058;7.810;2022-08-21T14:18:46;26.00;64.10
1700;DHT22;847;48.058;7.810;2022-08-21T14:21:13;26.00;64.90
1700;DHT22;847;48.058;7.810;2022-08-21T14:23:40;25.90;64.70
1700;DHT22;847;48.058;7.810;2022-08-21T14:26:08;25.90;63.80
1700;DHT22;847;48.058;7.810;2022-08-21T14:28:40;25.90;63.20
1700;DHT22;847;48.058;7.810;2022-08-21T14:31:13;25.80;64.50
1700;DHT22;847;48.058;7.810;2022-08-21T14:33:40;25.90;64.60
1700;DHT22;847;48.058;7.810;2022-08-21T14:36:07;26.00;64.00
1700;DHT22;847;48.058;7.810;2022-08-21T14:38:36;26.00;64.70
1700;DHT22;847;48.058;7.810;2022-08-21T14:41:11;26.20;64.30
1700;DHT22;847;48.058;7.810;2022-08-21T14:43:42;26.30;63.00
1700;DHT22;847;48.058;7.810;2022-08-21T14:46:10;26.30;63.00
1700;DHT22;847;48.058;7.810;2022-08-21T14:48:37;26.20;63.80
1700;DHT22;847;48.058;7.810;2022-08-21T14:51:04;26.30;64.40
1700;DHT22;847;48.058;7.810;2022-08-21T14:53:31;26.30;63.40
1700;DHT22;847;48.058;7.810;2022-08-21T14:55:58;26.50;63.60
1700;DHT22;847;48.058;7.810;2022-08-21T14:58:31;26.40;63.60
1700;DHT22;847;48.058;7.810;2022-08-21T15:00:59;26.30;64.60
1700;DHT22;847;48.058;7.810;2022-08-21T15:03:29;26.40;63.50
1700;DHT22;847;48.058;7.810;2022-08-21T15:05:56;26.40;64.50
1700;DHT22;847;48.058;7.810;2022-08-21T15:08:23;26.40;63.60
1700;DHT22;847;48.058;7.810;2022-08-21T15:10:51;26.40;64.30
1700;DHT22;847;48.058;7.810;2022-08-21T15:13:18;26.40;63.30
1700;DHT22;847;48.058;7.810;2022-08-21T15:15:47;26.40;64.30
1700;DHT22;847;48.058;7.810;2022-08-21T15:18:16;26.40;62.20
1700;DHT22;847;48.058;7.810;2022-08-21T15:20:43;26.40;62.40
1700;DHT22;847;48.058;7.810;2022-08-21T15:23:10;26.50;64.30
1700;DHT22;847;48.058;7.810;2022-08-21T15:25:36;26.50;63.50
1700;DHT22;847;48.058;7.810;2022-08-21T15:28:06;26.40;63.30
1700;DHT22;847;48.058;7.810;2022-08-21T15:30:34;26.40;63.50
1700;DHT22;847;48.058;7.810;2022-08-21T15:33:00;26.40;62.60
1700;DHT22;847;48.058;7.810;2022-08-21T15:35:29;26.50;61.20
1700;DHT22;847;48.058;7.810;2022-08-21T15:37:55;26.60;61.70
1700;DHT22;847;48.058;7.810;2022-08-21T15:40:23;26.90;62.70
1700;DHT22;847;48.058;7.810;2022-08-21T15:42:58;26.90;62.60
1700;DHT22;847;48.058;7.810;2022-08-21T15:45:25;27.20;61.90
1700;DHT22;847;48.058;7.810;2022-08-21T15:47:52;27.40;61.50
1700;DHT22;847;48.058;7.810;2022-08-21T15:50:21;27.50;60.60
1700;DHT22;847;48.058;7.810;2022-08-21T15:52:49;27.50;59.60
1700;DHT22;847;48.058;7.810;2022-08-21T15:55:16;27.50;60.40
1700;DHT22;847;48.058;7.810;2022-08-21T15:57:45;27.40;60.20
1700;DHT22;847;48.058;7.810;2022-08-21T16:00:16;27.40;60.90
1700;DHT22;847;48.058;7.810;2022-08-21T16:02:45;27.40;60.00
1700;DHT22;847;48.058;7.810;2022-08-21T16:05:13;27.40;60.40
1700;DHT22;847;48.058;7.810;2022-08-21T16:07:42;27.20;60.80
1700;DHT22;847;48.058;7.810;2022-08-21T16:10:11;27.10;59.50
1700;DHT22;847;48.058;7.810;2022-08-21T16:12:43;27.00;59.90
1700;DHT22;847;48.058;7.810;2022-08-21T16:15:13;26.80;61.00
1700;DHT22;847;48.058;7.810;2022-08-21T16:17:42;26.80;63.10
1700;DHT22;847;48.058;7.810;2022-08-21T16:20:16;26.70;60.50
1700;DHT22;847;48.058;7.810;2022-08-21T16:22:43;26.60;61.50
1700;DHT22;847;48.058;7.810;2022-08-21T16:25:12;26.60;60.90
1700;DHT22;847;48.058;7.810;2022-08-21T16:27:39;26.60;62.10
1700;DHT22;847;48.058;7.810;2022-08-21T16:30:08;26.50;60.90
1700;DHT22;847;48.058;7.810;2022-08-21T16:32:35;26.40;61.70
1700;DHT22;847;48.058;7.810;2022-08-21T16:35:02;26.40;61.10
1700;DHT22;847;48.058;7.810;2022-08-21T16:37:29;26.40;62.20
1700;DHT22;847;48.058;7.810;2022-08-21T16:39:57;26.50;62.60